Time;durP1;ratioP1;P1;durP2;ratioP2;P2;SDS_P1;SDS_P2;PMS_P1;PMS_P2;Temp;Humidity;BMP_temperature;BMP_pressure;BME280_temperature;BME280_humidity;BME280_pressure;Samples;Min_cycle;Max_cycle;Signal;HPM_P1;HPM_P2
2023/07/24 00:01:10;;;;;;;9.00;4.03;;;25.90;99.90;;;;;;1916361;73;21163;-85
2023/07/24 00:04:01;;;;;;;5.47;4.20;;;26.00;99.90;;;;;;1929243;73;21122;-85
2023/07/24 00:06:53;;;;;;;8.48;3.85;;;26.00;99.90;;;;;;1909716;73;21167;-85
2023/07/24 00:09:44;;;;;;;6.30;3.90;;;26.00;99.90;;;;;;1924790;73;21113;-85
2023/07/24 00:12:35;;;;;;;7.53;4.17;;;25.90;99.90;;;;;;1919263;73;21400;-85
2023/07/24 00:15:27;;;;;;;7.97;4.10;;;25.90;99.90;;;;;;1916190;73;21219;-85
2023/07/24 00:18:18;;;;;;;6.62;4.42;;;25.90;99.90;;;;;;1922431;73;21149;-85
2023/07/24 00:21:10;;;;;;;5.58;3.58;;;25.80;99.90;;;;;;1917128;73;21091;-85
2023/07/24 00:24:01;;;;;;;6.00;4.03;;;25.60;99.90;;;;;;1929378;73;21105;-85
2023/07/24 00:26:53;;;;;;;5.50;3.70;;;25.70;99.90;;;;;;1930447;73;21736;-85
2023/07/24 00:29:44;;;;;;;5.90;3.85;;;25.60;99.90;;;;;;1923725;73;21102;-86
2023/07/24 00:32:36;;;;;;;5.53;3.70;;;25.60;99.90;;;;;;1930445;73;21565;-85
2023/07/24 00:35:27;;;;;;;7.80;4.10;;;25.60;99.90;;;;;;1916355;73;21164;-86
2023/07/24 00:40:58;;;;;;;6.95;3.90;;;25.50;99.90;;;;;;1944513;72;22181;-85
2023/07/24 00:43:49;;;;;;;6.20;4.45;;;25.40;99.90;;;;;;1923774;73;21139;-85
2023/07/24 00:46:41;;;;;;;8.75;4.33;;;25.40;99.90;;;;;;1916273;75;21092;-85
2023/07/24 00:49:33;;;;;;;5.53;3.98;;;25.40;99.90;;;;;;1917274;73;21718;-85
2023/07/24 00:52:24;;;;;;;6.47;4.03;;;25.40;99.90;;;;;;1942960;73;21553;-84
2023/07/24 00:55:16;;;;;;;7.03;4.00;;;25.40;99.90;;;;;;1927496;73;21203;-84
2023/07/24 01:00:46;;;;;;;8.58;4.28;;;25.40;99.90;;;;;;1939175;72;22263;-84
2023/07/24 01:03:39;;;;;;;6.72;3.75;;;25.50;99.90;;;;;;1915214;74;21109;-84
2023/07/24 01:06:31;;;;;;;5.60;4.00;;;25.50;99.90;;;;;;1895006;74;21584;-86
2023/07/24 01:09:24;;;;;;;6.53;3.75;;;25.50;99.90;;;;;;1901221;75;21110;-84
2023/07/24 01:12:19;;;;;;;6.03;4.20;;;25.50;99.90;;;;;;1914090;75;21192;-84
2023/07/24 01:15:14;;;;;;;8.00;4.05;;;25.40;99.90;;;;;;1895190;75;21094;-85
2023/07/24 01:20:51;;;;;;;7.42;4.75;;;25.50;99.90;;;;;;1938020;72;22240;-85
2023/07/24 01:23:50;;;;;;;6.87;4.17;;;25.50;99.90;;;;;;1884054;75;21581;-85
2023/07/24 01:26:41;;;;;;;5.45;3.83;;;25.50;99.90;;;;;;1894832;75;21134;-84
2023/07/24 01:29:33;;;;;;;7.83;4.22;;;25.40;99.90;;;;;;1884968;75;21102;-84
2023/07/24 01:32:24;;;;;;;6.05;4.08;;;25.40;99.90;;;;;;1883594;75;21184;-85
2023/07/24 01:35:16;;;;;;;7.78;4.22;;;25.30;99.90;;;;;;1903087;75;21645;-85
2023/07/24 01:38:07;;;;;;;7.50;3.95;;;25.30;99.90;;;;;;1895469;75;21178;-85
2023/07/24 01:40:59;;;;;;;8.28;4.35;;;25.20;99.90;;;;;;1890329;75;21151;-85
2023/07/24 01:43:51;;;;;;;7.40;3.77;;;25.10;99.90;;;;;;1908421;75;21094;-85
2023/07/24 01:46:42;;;;;;;6.80;4.03;;;25.10;99.90;;;;;;1899339;75;21647;-85
2023/07/24 01:49:34;;;;;;;7.00;3.95;;;25.00;99.90;;;;;;1883648;75;21079;-85
2023/07/24 01:52:25;;;;;;;8.03;3.85;;;25.00;99.90;;;;;;1889883;75;21161;-85
2023/07/24 01:55:17;;;;;;;8.15;4.20;;;24.90;99.90;;;;;;1886278;75;21188;-85
2023/07/24 01:58:29;;;;;;;5.45;3.72;;;25.00;99.90;;;;;;1883359;75;21125;-84
2023/07/24 02:01:20;;;;;;;6.47;3.65;;;24.90;99.90;;;;;;1884628;75;21133;-89
2023/07/24 02:04:12;;;;;;;12.30;3.90;;;24.90;99.90;;;;;;1888609;75;21055;-83
2023/07/24 02:15:04;;;;;;;8.45;4.08;;;25.90;99.90;;;;;;1928759;72;22346;-84
2023/07/24 02:23:19;;;;;;;6.90;4.03;;;24.60;99.90;;;;;;1948474;72;22185;-84
2023/07/24 02:26:10;;;;;;;6.65;4.70;;;23.90;99.90;;;;;;1892421;75;21098;-85
2023/07/24 02:29:01;;;;;;;7.67;4.20;;;23.70;99.90;;;;;;1892509;75;21106;-85
2023/07/24 02:31:54;;;;;;;9.00;4.80;;;23.70;99.90;;;;;;1910858;75;21050;-86
2023/07/24 02:34:46;;;;;;;4.72;3.90;;;23.70;99.90;;;;;;1906844;74;21191;-86
2023/07/24 02:37:38;;;;;;;7.62;3.98;;;23.80;99.90;;;;;;1902090;75;21063;-88
2023/07/24 02:40:29;;;;;;;5.67;4.35;;;23.90;99.90;;;;;;1908398;75;21191;-87
2023/07/24 02:46:04;;;;;;;8.00;3.90;;;23.80;99.90;;;;;;1908707;72;22303;-87
2023/07/24 02:48:56;;;;;;;7.50;4.22;;;23.80;99.90;;;;;;1914284;75;21113;-86
2023/07/24 02:54:30;;;;;;;5.97;4.00;;;23.70;99.90;;;;;;1960312;72;22213;-86
2023/07/24 03:00:03;;;;;;;6.72;4.05;;;23.50;99.90;;;;;;1950632;72;22160;-86
2023/07/24 03:02:54;;;;;;;8.18;4.40;;;23.50;99.90;;;;;;1927851;73;21204;-86
2023/07/24 03:08:27;;;;;;;6.28;4.42;;;23.60;99.90;;;;;;1930140;72;22164;-86
2023/07/24 03:11:19;;;;;;;6.83;4.03;;;23.40;99.90;;;;;;1883507;75;21181;-84
2023/07/24 03:14:10;;;;;;;6.15;3.95;;;23.10;99.90;;;;;;1888368;75;21091;-83
2023/07/24 03:17:02;;;;;;;7.12;3.83;;;22.90;99.90;;;;;;1884534;75;21194;-83
2023/07/24 03:19:56;;;;;;;7.05;4.30;;;22.90;99.90;;;;;;1883815;75;21138;-85
2023/07/24 03:22:47;;;;;;;6.95;3.55;;;22.90;99.90;;;;;;1878956;75;21176;-83
2023/07/24 03:25:38;;;;;;;4.37;3.40;;;22.90;99.90;;;;;;1891582;75;21107;-83
2023/07/24 03:28:30;;;;;;;6.70;4.05;;;23.00;99.90;;;;;;1882329;75;21367;-84
2023/07/24 03:31:21;;;;;;;5.22;3.25;;;23.10;99.90;;;;;;1890402;75;21134;-84
2023/07/24 03:34:13;;;;;;;5.75;3.85;;;23.10;99.90;;;;;;1898226;75;21118;-84
2023/07/24 03:39:43;;;;;;;4.55;3.40;;;23.10;99.90;;;;;;1955703;72;22197;-83
2023/07/24 03:42:35;;;;;;;5.65;3.25;;;23.10;99.90;;;;;;1934738;73;21175;-82
2023/07/24 03:45:27;;;;;;;4.53;3.40;;;23.20;99.90;;;;;;1916354;73;21042;-82
2023/07/24 03:48:25;;;;;;;5.15;3.45;;;23.40;99.90;;;;;;1929885;73;21168;-83
2023/07/24 03:51:16;;;;;;;5.97;3.60;;;23.10;99.90;;;;;;1916381;73;21110;-81
2023/07/24 03:56:50;;;;;;;6.85;3.98;;;22.60;99.90;;;;;;1953899;72;22218;-80
2023/07/24 03:59:45;;;;;;;6.55;3.60;;;22.50;99.90;;;;;;1916139;73;21054;-79
2023/07/24 04:05:22;;;;;;;10.95;6.05;;;22.50;99.90;;;;;;1932875;72;22071;-79
2023/07/24 04:08:14;;;;;;;11.57;5.03;;;22.40;99.90;;;;;;1909469;75;21196;-80
2023/07/24 04:11:06;;;;;;;10.53;5.60;;;22.40;99.90;;;;;;1890611;75;21193;-80
2023/07/24 04:16:36;;;;;;;8.15;5.40;;;22.40;99.90;;;;;;1949200;72;22270;-80
2023/07/24 04:19:28;;;;;;;7.78;4.67;;;22.40;99.90;;;;;;1904932;75;21090;-80
2023/07/24 04:24:58;;;;;;;8.90;4.80;;;22.40;99.90;;;;;;1941091;72;22245;-80
2023/07/24 04:27:49;;;;;;;7.53;4.83;;;22.30;99.90;;;;;;1929433;73;21590;-79
2023/07/24 04:30:40;;;;;;;6.17;4.87;;;22.20;99.90;;;;;;1948088;73;21098;-79
2023/07/24 04:33:32;;;;;;;8.58;4.95;;;22.20;99.90;;;;;;1937347;73;21059;-81
2023/07/24 04:36:23;;;;;;;5.80;4.85;;;22.00;99.90;;;;;;1929748;73;21148;-80
2023/07/24 04:39:14;;;;;;;7.80;4.80;;;21.90;99.90;;;;;;1927127;73;21090;-80
2023/07/24 04:42:07;;;;;;;5.83;3.77;;;22.00;99.90;;;;;;1927305;73;21155;-81
2023/07/24 04:44:58;;;;;;;6.55;3.83;;;21.90;99.90;;;;;;1916103;73;21144;-82
2023/07/24 04:50:31;;;;;;;5.42;3.60;;;21.40;99.90;;;;;;1933181;72;22213;-79
2023/07/24 04:56:05;;;;;;;6.62;4.85;;;21.80;99.90;;;;;;1932607;72;22209;-80
2023/07/24 05:04:16;;;;;;;10.50;5.45;;;21.90;99.90;;;;;;1939994;72;22184;-79
2023/07/24 05:09:45;;;;;;;9.68;5.65;;;21.90;99.90;;;;;;1942485;72;22185;-82
2023/07/24 05:15:19;;;;;;;7.95;5.03;;;22.00;99.90;;;;;;1941653;72;22183;-80
2023/07/24 05:20:55;;;;;;;7.55;5.22;;;21.70;99.90;;;;;;1907858;72;28176;-80
2023/07/24 05:26:25;;;;;;;6.97;4.87;;;21.70;99.90;;;;;;1934506;72;22649;-79
2023/07/24 05:34:35;;;;;;;8.60;5.47;;;21.70;99.90;;;;;;1932027;72;22169;-80
2023/07/24 05:37:26;;;;;;;10.03;6.30;;;21.80;99.90;;;;;;1892156;75;21094;-80
2023/07/24 05:40:18;;;;;;;10.23;6.17;;;21.90;99.90;;;;;;1893338;75;21579;-80
2023/07/24 05:43:09;;;;;;;8.08;6.10;;;21.90;99.90;;;;;;1886524;74;21104;-80
2023/07/24 05:46:01;;;;;;;8.58;6.00;;;21.80;99.90;;;;;;1903910;75;21642;-80
2023/07/24 05:48:52;;;;;;;10.75;7.35;;;21.70;99.90;;;;;;1888033;75;21560;-80
2023/07/24 05:54:23;;;;;;;7.55;5.87;;;21.50;99.90;;;;;;1942431;72;22133;-80
2023/07/24 05:57:14;;;;;;;9.03;5.95;;;21.50;99.90;;;;;;1927189;73;21125;-79
2023/07/24 06:00:08;;;;;;;11.83;6.70;;;21.50;99.90;;;;;;1944702;73;21170;-80
2023/07/24 06:03:02;;;;;;;9.68;5.80;;;21.60;99.90;;;;;;1926526;73;21221;-80
2023/07/24 06:05:55;;;;;;;10.13;6.50;;;21.60;99.90;;;;;;1916234;75;21170;-79
2023/07/24 06:08:47;;;;;;;9.05;6.70;;;21.40;99.90;;;;;;1928538;73;21203;-80
2023/07/24 06:11:39;;;;;;;8.35;6.37;;;21.50;99.90;;;;;;1920499;73;21097;-80
2023/07/24 06:14:30;;;;;;;8.18;5.90;;;21.50;99.90;;;;;;1930896;73;21135;-80
2023/07/24 06:20:00;;;;;;;8.15;5.85;;;21.60;99.90;;;;;;1950931;72;22473;-79
2023/07/24 06:22:51;;;;;;;8.48;5.20;;;21.70;99.90;;;;;;1925147;73;21113;-79
2023/07/24 06:25:43;;;;;;;9.38;5.83;;;22.00;99.90;;;;;;1916113;75;21106;-79
2023/07/24 06:28:34;;;;;;;10.65;5.30;;;22.10;99.90;;;;;;1917437;73;21118;-79
2023/07/24 06:31:26;;;;;;;7.40;5.62;;;22.20;99.90;;;;;;1916010;75;21179;-79
2023/07/24 06:34:17;;;;;;;10.32;6.25;;;22.30;99.90;;;;;;1915885;75;21199;-79
2023/07/24 06:39:47;;;;;;;8.58;5.58;;;22.40;99.90;;;;;;1927836;72;22224;-79
2023/07/24 06:42:38;;;;;;;8.10;6.05;;;22.50;99.90;;;;;;1909829;75;21090;-79
2023/07/24 06:45:29;;;;;;;6.83;5.03;;;22.60;99.90;;;;;;1906175;75;21125;-79
2023/07/24 06:50:59;;;;;;;7.83;5.42;;;22.70;99.90;;;;;;1940865;72;22190;-79
2023/07/24 06:56:31;;;;;;;9.25;4.85;;;22.90;99.90;;;;;;1934541;72;22196;-78
2023/07/24 07:04:46;;;;;;;10.48;5.95;;;22.80;99.90;;;;;;1950640;72;22163;-78
2023/07/24 07:10:17;;;;;;;15.45;6.12;;;22.60;99.90;;;;;;1937573;72;22155;-79
2023/07/24 07:13:09;;;;;;;9.75;5.62;;;22.60;99.90;;;;;;1894504;75;21146;-79
2023/07/24 07:16:01;;;;;;;13.48;6.12;;;22.70;99.90;;;;;;1900934;75;21106;-79
2023/07/24 07:18:53;;;;;;;9.13;5.50;;;22.80;99.90;;;;;;1898719;75;21845;-80
2023/07/24 07:24:24;;;;;;;10.28;5.60;;;23.10;99.90;;;;;;1942605;72;22256;-81
2023/07/24 07:27:17;;;;;;;10.98;5.22;;;23.10;99.90;;;;;;1923368;73;21166;-81
2023/07/24 07:30:10;;;;;;;11.48;5.85;;;23.10;99.90;;;;;;1916273;75;21593;-80
2023/07/24 07:33:01;;;;;;;9.80;5.53;;;23.20;99.90;;;;;;1927226;73;21125;-80
2023/07/24 07:35:53;;;;;;;8.63;5.28;;;23.30;99.90;;;;;;1916483;73;21079;-80
2023/07/24 07:38:46;;;;;;;6.65;5.03;;;23.40;99.90;;;;;;1928286;73;21129;-79
2023/07/24 07:41:37;;;;;;;7.50;5.42;;;23.50;99.90;;;;;;1920097;73;21162;-79
2023/07/24 07:44:29;;;;;;;9.05;5.65;;;23.60;99.90;;;;;;1915810;73;21125;-79
2023/07/24 07:47:21;;;;;;;7.08;5.67;;;23.60;99.90;;;;;;1927585;73;21122;-79
2023/07/24 07:52:54;;;;;;;9.58;5.47;;;23.80;99.90;;;;;;1939262;72;22197;-79
2023/07/24 07:55:46;;;;;;;8.15;5.58;;;23.90;99.90;;;;;;1929860;74;21181;-79
2023/07/24 07:58:37;;;;;;;9.43;5.60;;;24.10;99.90;;;;;;1906080;74;21668;-79
2023/07/24 08:01:30;;;;;;;10.50;5.45;;;24.10;99.90;;;;;;1924803;74;21043;-78
2023/07/24 08:04:21;;;;;;;7.87;5.42;;;24.10;99.90;;;;;;1917927;74;21143;-79
2023/07/24 08:09:52;;;;;;;8.15;5.60;;;24.30;99.90;;;;;;1927733;72;22620;-79
2023/07/24 08:12:43;;;;;;;9.20;5.65;;;24.20;99.90;;;;;;1893729;75;21145;-79
2023/07/24 08:15:37;;;;;;;8.05;5.95;;;24.10;99.90;;;;;;1881487;75;21180;-79
2023/07/24 08:18:28;;;;;;;8.05;5.35;;;24.10;99.90;;;;;;1899297;75;21167;-79
2023/07/24 08:21:20;;;;;;;8.05;5.50;;;24.10;99.90;;;;;;1896887;75;21159;-78
2023/07/24 08:24:11;;;;;;;8.68;5.70;;;24.10;99.90;;;;;;1874653;75;21151;-78
2023/07/24 08:29:42;;;;;;;8.78;5.75;;;24.10;99.90;;;;;;1931598;72;22267;-78
2023/07/24 08:32:33;;;;;;;9.18;5.10;;;24.10;99.90;;;;;;1903538;74;21114;-78
2023/07/24 08:35:24;;;;;;;10.90;5.55;;;24.20;99.90;;;;;;1903391;75;21162;-78
2023/07/24 08:38:16;;;;;;;8.08;5.15;;;24.30;99.90;;;;;;1895611;75;21138;-80
2023/07/24 08:41:09;;;;;;;6.90;5.15;;;24.40;99.90;;;;;;1888880;75;21181;-78
2023/07/24 08:44:01;;;;;;;7.25;5.10;;;24.30;99.90;;;;;;1884032;74;21157;-78
2023/07/24 08:49:32;;;;;;;8.23;5.15;;;24.10;99.90;;;;;;1926716;72;22235;-78
2023/07/24 08:52:23;;;;;;;8.90;4.50;;;24.10;99.90;;;;;;1890613;75;21106;-78
2023/07/24 08:55:16;;;;;;;7.40;5.05;;;24.00;99.90;;;;;;1912423;75;21157;-78
2023/07/24 09:00:48;;;;;;;6.70;4.72;;;24.20;99.90;;;;;;1933844;72;22242;-79
2023/07/24 09:03:40;;;;;;;7.90;5.17;;;24.40;99.90;;;;;;1889257;75;21187;-79
2023/07/24 09:06:32;;;;;;;8.28;4.75;;;24.50;99.90;;;;;;1903945;75;21138;-78
2023/07/24 09:09:26;;;;;;;9.38;4.97;;;24.80;99.90;;;;;;1901628;75;21147;-79
2023/07/24 09:15:06;;;;;;;6.78;4.22;;;25.30;99.90;;;;;;1954070;72;22168;-78
2023/07/24 09:17:58;;;;;;;6.28;4.20;;;25.30;99.90;;;;;;1892012;75;21101;-78
2023/07/24 09:20:50;;;;;;;8.65;4.20;;;25.10;99.90;;;;;;1911045;75;21083;-78
2023/07/24 09:26:25;;;;;;;5.53;4.08;;;25.70;99.90;;;;;;1945787;72;22709;-78
2023/07/24 09:29:19;;;;;;;8.20;4.92;;;25.70;99.90;;;;;;1926310;73;21110;-78
2023/07/24 09:34:56;;;;;;;8.38;5.42;;;25.20;99.90;;;;;;1943788;72;22168;-78
2023/07/24 09:37:48;;;;;;;8.38;5.10;;;24.70;99.90;;;;;;1914595;73;21639;-78
2023/07/24 09:40:44;;;;;;;6.85;4.72;;;24.50;99.90;;;;;;1917345;73;21082;-78
2023/07/24 09:43:37;;;;;;;7.10;4.70;;;24.30;99.90;;;;;;1922662;73;21129;-79
2023/07/24 09:46:31;;;;;;;7.60;5.10;;;24.50;99.90;;;;;;1916453;75;21171;-80
2023/07/24 09:49:24;;;;;;;7.50;4.40;;;24.70;99.90;;;;;;1922365;73;21156;-78
2023/07/24 09:52:19;;;;;;;6.87;4.50;;;24.90;99.90;;;;;;1936075;73;21240;-78
2023/07/24 09:55:14;;;;;;;5.87;4.50;;;25.10;99.90;;;;;;1922484;73;21090;-78
2023/07/24 09:58:07;;;;;;;7.70;5.10;;;25.30;99.90;;;;;;1916213;75;21117;-78
2023/07/24 10:00:58;;;;;;;9.13;5.10;;;25.30;99.90;;;;;;1929951;73;21203;-78
2023/07/24 10:03:51;;;;;;;6.17;4.72;;;25.30;99.90;;;;;;1943954;73;21393;-78
2023/07/24 10:06:44;;;;;;;7.35;4.83;;;25.50;99.90;;;;;;1947892;73;21187;-94
2023/07/24 10:09:38;;;;;;;8.45;4.80;;;25.60;99.90;;;;;;1955411;71;21086;-93
2023/07/24 10:12:32;;;;;;;8.98;5.00;;;25.70;99.90;;;;;;1951876;73;21093;-94
2023/07/24 10:15:23;;;;;;;8.25;4.47;;;25.90;99.90;;;;;;1951194;73;21150;-94
2023/07/24 10:18:16;;;;;;;6.55;4.75;;;25.90;99.90;;;;;;1950834;73;21119;-93
2023/07/24 10:21:09;;;;;;;7.90;5.12;;;26.00;99.90;;;;;;1950465;73;21172;-94
2023/07/24 10:24:02;;;;;;;6.92;4.40;;;26.00;99.90;;;;;;1950787;73;21159;-95
2023/07/24 10:26:57;;;;;;;8.00;4.70;;;26.00;99.90;;;;;;1950836;73;21051;-93
2023/07/24 10:29:50;;;;;;;5.95;4.70;;;26.10;99.90;;;;;;1950955;73;21119;-94
2023/07/24 10:32:49;;;;;;;7.83;4.37;;;26.40;99.90;;;;;;1951008;73;21121;-93
2023/07/24 10:35:44;;;;;;;6.33;4.40;;;26.70;99.90;;;;;;1920278;73;21145;-94
2023/07/24 10:38:36;;;;;;;7.20;4.53;;;26.90;99.90;;;;;;1901629;75;21552;-87
2023/07/24 10:41:38;;;;;;;7.40;4.47;;;27.10;99.90;;;;;;1929337;73;21130;-87
2023/07/24 10:44:33;;;;;;;6.97;5.25;;;27.20;99.90;;;;;;1917981;73;21118;-86
2023/07/24 10:47:27;;;;;;;8.08;4.42;;;27.20;99.90;;;;;;1915293;75;21126;-87
2023/07/24 10:50:22;;;;;;;7.80;4.50;;;27.30;99.90;;;;;;1915621;75;21168;-87
2023/07/24 10:53:18;;;;;;;7.67;5.00;;;27.40;99.90;;;;;;1915295;75;21270;-87
2023/07/24 10:56:17;;;;;;;7.30;4.50;;;27.70;99.90;;;;;;1929861;73;21072;-87
2023/07/24 10:59:09;;;;;;;5.92;4.00;;;27.80;99.90;;;;;;1939226;73;21163;-87
2023/07/24 11:02:06;;;;;;;5.90;4.10;;;27.90;99.90;;;;;;1915168;73;21098;-88
2023/07/24 11:05:00;;;;;;;4.47;4.00;;;28.10;99.90;;;;;;1915294;75;21160;-87
2023/07/24 11:08:13;;;;;;;6.25;4.28;;;28.30;99.90;;;;;;1915718;75;21172;-87
2023/07/24 11:11:06;;;;;;;6.10;4.20;;;28.50;99.90;;;;;;1915350;75;21557;-87
2023/07/24 11:14:02;;;;;;;6.72;4.42;;;28.60;99.90;;;;;;1927622;73;21083;-87
2023/07/24 11:16:57;;;;;;;6.67;4.40;;;28.60;99.90;;;;;;1941092;73;21064;-87
2023/07/24 11:19:52;;;;;;;5.42;4.25;;;28.80;99.90;;;;;;1937715;73;21174;-86
2023/07/24 11:22:47;;;;;;;5.22;4.05;;;28.70;99.90;;;;;;1915130;75;21115;-85
2023/07/24 11:26:08;;;;;;;6.75;4.35;;;28.50;99.90;;;;;;1914160;73;21837;-86
2023/07/24 11:29:03;;;;;;;7.28;4.05;;;28.70;99.90;;;;;;1916005;75;21222;-87
2023/07/24 11:31:59;;;;;;;5.40;4.17;;;28.80;99.90;;;;;;1929159;73;21130;-87
2023/07/24 11:34:53;;;;;;;5.25;3.77;;;28.90;99.90;;;;;;1915262;73;21188;-87
2023/07/24 11:37:45;;;;;;;7.58;3.90;;;28.90;99.90;;;;;;1932190;74;21774;-87
2023/07/24 11:40:39;;;;;;;5.15;4.28;;;28.90;99.90;;;;;;1909297;75;21177;-87
2023/07/24 11:43:32;;;;;;;7.85;4.10;;;29.00;99.90;;;;;;1909584;74;21102;-87
2023/07/24 11:46:27;;;;;;;6.97;4.25;;;28.70;99.90;;;;;;1918869;74;21130;-87
2023/07/24 11:49:19;;;;;;;6.55;4.10;;;28.40;99.90;;;;;;1933711;74;21196;-87
2023/07/24 11:52:12;;;;;;;6.30;3.60;;;28.30;99.90;;;;;;1934859;74;21106;-87
2023/07/24 11:55:03;;;;;;;8.45;4.60;;;28.10;99.90;;;;;;1922244;74;21106;-87
2023/07/24 11:57:59;;;;;;;8.15;4.30;;;28.00;99.90;;;;;;1926170;74;21102;-86
2023/07/24 12:00:51;;;;;;;6.70;4.58;;;27.90;99.90;;;;;;1919317;74;21043;-87
2023/07/24 12:06:26;;;;;;;5.83;4.30;;;28.20;99.90;;;;;;1951270;72;22204;-87
2023/07/24 12:09:17;;;;;;;5.70;4.22;;;28.40;99.90;;;;;;1894781;75;21106;-88
2023/07/24 12:12:16;;;;;;;6.50;4.50;;;28.60;99.90;;;;;;1883551;76;21126;-86
2023/07/24 12:15:04;;;;;;;6.55;4.72;;;28.40;99.90;;;;;;1883205;76;21145;-86
2023/07/24 12:17:56;;;;;;;6.87;4.47;;;28.30;99.90;;;;;;1883117;76;21176;-85
2023/07/24 12:20:48;;;;;;;7.37;4.83;;;28.60;99.90;;;;;;1883413;76;21183;-86
2023/07/24 12:23:39;;;;;;;7.22;4.60;;;28.70;99.90;;;;;;1882948;76;21059;-86
2023/07/24 12:26:30;;;;;;;6.55;4.65;;;28.60;99.90;;;;;;1883183;75;21138;-86
2023/07/24 12:29:22;;;;;;;5.72;4.50;;;28.40;99.90;;;;;;1894045;75;21620;-87
2023/07/24 12:32:13;;;;;;;6.78;4.70;;;28.30;99.90;;;;;;1902780;75;21257;-86
2023/07/24 12:35:05;;;;;;;7.97;4.78;;;28.30;99.90;;;;;;1883249;76;21373;-86
2023/07/24 12:37:57;;;;;;;6.95;4.60;;;28.50;99.90;;;;;;1883245;76;21114;-86
2023/07/24 12:40:48;;;;;;;7.58;4.97;;;28.90;99.90;;;;;;1883089;75;21163;-86
2023/07/24 12:43:39;;;;;;;7.20;4.50;;;29.00;99.90;;;;;;1886381;75;21613;-86
2023/07/24 12:46:31;;;;;;;6.25;4.70;;;29.20;99.90;;;;;;1898346;73;21176;-87
2023/07/24 12:49:22;;;;;;;8.28;5.20;;;29.10;99.90;;;;;;1905550;75;21180;-86
2023/07/24 12:52:13;;;;;;;6.65;4.85;;;29.00;99.90;;;;;;1895207;75;21183;-86
2023/07/24 12:55:05;;;;;;;8.40;4.95;;;29.10;99.90;;;;;;1883401;75;21113;-86
2023/07/24 12:57:56;;;;;;;8.58;5.70;;;29.10;99.90;;;;;;1876999;76;21243;-86
2023/07/24 13:00:47;;;;;;;6.47;4.85;;;29.10;99.90;;;;;;1905185;75;21212;-87
2023/07/24 13:03:38;;;;;;;9.50;4.83;;;29.00;99.90;;;;;;1905018;75;21133;-86
2023/07/24 13:06:30;;;;;;;6.55;4.67;;;29.10;99.90;;;;;;1897383;75;21149;-86
2023/07/24 13:09:23;;;;;;;7.30;5.62;;;29.10;99.90;;;;;;1893026;75;21157;-86
2023/07/24 13:12:15;;;;;;;7.90;5.45;;;28.80;99.90;;;;;;1887063;75;21188;-86
2023/07/24 13:15:08;;;;;;;7.58;5.35;;;28.60;99.90;;;;;;1885236;75;21086;-86
2023/07/24 13:20:39;;;;;;;6.97;4.67;;;28.80;99.90;;;;;;1960370;72;22156;-86
2023/07/24 13:23:30;;;;;;;8.48;5.33;;;29.10;99.90;;;;;;1926855;73;21090;-86
2023/07/24 13:26:22;;;;;;;6.05;5.12;;;29.30;99.90;;;;;;1927324;73;21147;-86
2023/07/24 13:29:13;;;;;;;9.90;5.00;;;29.30;99.90;;;;;;1929536;73;21563;-85
2023/07/24 13:32:05;;;;;;;8.60;5.50;;;29.30;99.90;;;;;;1916167;75;21106;-86
2023/07/24 13:34:58;;;;;;;8.33;5.17;;;29.60;99.90;;;;;;1916108;75;21460;-86
2023/07/24 13:37:50;;;;;;;6.75;5.08;;;30.00;99.90;;;;;;1915923;75;21157;-86
2023/07/24 13:40:41;;;;;;;6.78;5.33;;;30.00;99.90;;;;;;1916030;75;21178;-86
2023/07/24 13:43:34;;;;;;;5.72;5.10;;;30.00;99.90;;;;;;1915584;75;21633;-86
2023/07/24 13:46:25;;;;;;;7.45;4.92;;;30.20;99.90;;;;;;1915159;75;21178;-88
2023/07/24 13:49:17;;;;;;;7.62;5.17;;;30.10;99.90;;;;;;1915555;75;21099;-87
2023/07/24 13:52:09;;;;;;;8.13;4.60;;;30.40;99.90;;;;;;1919113;73;21067;-87
2023/07/24 13:55:01;;;;;;;9.43;5.92;;;30.50;99.90;;;;;;1929816;73;21098;-87
2023/07/24 13:57:53;;;;;;;11.18;5.30;;;30.70;99.90;;;;;;1916244;75;21142;-87
2023/07/24 14:00:44;;;;;;;8.43;4.83;;;30.90;99.90;;;;;;1916361;75;21592;-86
2023/07/24 14:03:36;;;;;;;6.85;4.62;;;30.90;99.90;;;;;;1915667;75;21106;-87
2023/07/24 14:06:28;;;;;;;6.28;4.75;;;30.90;99.90;;;;;;1915790;75;21125;-87
2023/07/24 14:09:19;;;;;;;7.25;4.60;;;31.50;99.90;;;;;;1929107;73;21180;-87
2023/07/24 14:12:11;;;;;;;7.12;4.70;;;32.20;99.90;;;;;;1932962;73;21097;-86
2023/07/24 14:15:02;;;;;;;5.17;4.28;;;32.20;99.90;;;;;;1915704;75;21138;-75
2023/07/24 14:17:54;;;;;;;7.33;4.42;;;32.60;99.90;;;;;;1915755;75;21181;-74
2023/07/24 14:20:47;;;;;;;6.22;4.33;;;33.20;99.90;;;;;;1933797;73;21141;-75
2023/07/24 14:23:38;;;;;;;6.08;4.25;;;33.60;99.90;;;;;;1924437;74;21150;-75
2023/07/24 14:26:30;;;;;;;7.17;4.65;;;33.70;99.90;;;;;;1915972;75;21075;-74
2023/07/24 14:29:21;;;;;;;6.17;4.42;;;33.70;99.90;;;;;;1938650;73;21613;-74
2023/07/24 14:32:13;;;;;;;6.00;4.40;;;33.50;99.90;;;;;;1903046;75;21147;-75
2023/07/24 14:35:04;;;;;;;7.40;4.30;;;33.10;99.90;;;;;;1924868;73;21082;-85
2023/07/24 14:40:34;;;;;;;5.15;4.30;;;34.10;99.90;;;;;;1964356;72;22204;-86
2023/07/24 14:46:12;;;;;;;7.87;4.28;;;35.70;99.90;;;;;;1940572;72;22211;-86
2023/07/24 14:49:04;;;;;;;6.90;4.50;;;36.50;99.90;;;;;;1912674;74;21201;-86
2023/07/24 14:51:56;;;;;;;6.05;4.60;;;36.80;99.90;;;;;;1904355;75;21170;-86
2023/07/24 14:57:28;;;;;;;6.12;4.25;;;36.70;99.90;;;;;;1934217;72;22247;-86
2023/07/24 15:00:20;;;;;;;6.50;4.58;;;35.90;99.90;;;;;;1906984;75;21174;-85
2023/07/24 15:03:11;;;;;;;6.58;4.80;;;35.40;99.90;;;;;;1904586;75;21071;-86
2023/07/24 15:06:04;;;;;;;5.60;4.05;;;35.30;99.90;;;;;;1882498;75;21219;-86
2023/07/24 15:08:57;;;;;;;5.97;4.45;;;36.20;99.90;;;;;;1904318;75;21163;-87
2023/07/24 15:11:48;;;;;;;6.78;4.45;;;36.30;99.40;;;;;;1886533;75;21118;-86
2023/07/24 15:14:39;;;;;;;9.58;4.80;;;34.90;99.50;;;;;;1900089;75;21239;-86
2023/07/24 15:17:31;;;;;;;6.33;4.47;;;33.80;99.90;;;;;;1896701;75;21090;-74
2023/07/24 15:20:22;;;;;;;6.78;4.25;;;33.70;99.90;;;;;;1902689;75;21131;-81
2023/07/24 15:23:13;;;;;;;7.50;5.08;;;34.10;99.90;;;;;;1911436;74;21107;-81
2023/07/24 15:26:05;;;;;;;7.65;4.40;;;34.50;99.90;;;;;;1895466;75;21118;-82
2023/07/24 15:28:56;;;;;;;8.43;4.80;;;35.40;99.40;;;;;;1919178;74;21176;-82
2023/07/24 15:31:47;;;;;;;7.55;4.87;;;34.40;99.90;;;;;;1916232;75;21102;-81
2023/07/24 15:34:39;;;;;;;8.55;5.05;;;33.10;99.90;;;;;;1887210;75;21110;-81
2023/07/24 15:37:31;;;;;;;6.85;4.92;;;31.80;99.90;;;;;;1905327;75;21370;-80
2023/07/24 15:43:02;;;;;;;6.10;4.60;;;29.90;99.90;;;;;;1956493;72;22151;-81
2023/07/24 15:45:54;;;;;;;6.85;4.87;;;29.20;99.90;;;;;;1893818;75;21175;-80
2023/07/24 15:48:45;;;;;;;5.08;4.35;;;28.60;99.90;;;;;;1892282;75;21150;-82
2023/07/24 15:51:36;;;;;;;6.55;3.83;;;28.40;99.90;;;;;;1894181;75;21113;-83
2023/07/24 15:54:29;;;;;;;4.25;3.85;;;28.30;99.90;;;;;;1892074;75;21163;-85
2023/07/24 15:57:21;;;;;;;5.37;3.37;;;28.00;99.90;;;;;;1905809;75;21129;-84
2023/07/24 16:00:17;;;;;;;6.53;4.03;;;27.80;99.90;;;;;;1883720;75;21650;-83
2023/07/24 16:03:08;;;;;;;4.67;3.60;;;28.00;99.90;;;;;;1903847;75;21161;-83
2023/07/24 16:05:59;;;;;;;5.45;3.98;;;27.50;99.90;;;;;;1898343;75;21047;-83
2023/07/24 16:08:51;;;;;;;5.08;3.20;;;27.60;99.90;;;;;;1894636;75;21168;-81
2023/07/24 16:11:42;;;;;;;4.78;3.12;;;27.50;99.90;;;;;;1894678;75;21155;-81
2023/07/24 16:14:35;;;;;;;5.70;3.37;;;27.50;99.90;;;;;;1896687;75;21551;-81
2023/07/24 16:17:27;;;;;;;4.42;3.42;;;27.40;99.90;;;;;;1898834;75;21628;-81
2023/07/24 16:20:23;;;;;;;4.42;3.50;;;27.40;99.90;;;;;;1894671;75;21110;-82
2023/07/24 16:23:14;;;;;;;4.92;4.00;;;27.70;99.90;;;;;;1894528;75;21138;-81
2023/07/24 16:26:05;;;;;;;5.45;3.45;;;28.20;99.90;;;;;;1895690;75;21063;-81
2023/07/24 16:28:57;;;;;;;5.50;3.80;;;28.40;99.90;;;;;;1894299;75;21161;-81
2023/07/24 16:31:48;;;;;;;4.42;4.03;;;28.30;99.90;;;;;;1894846;75;21110;-82
2023/07/24 16:34:40;;;;;;;5.30;3.55;;;27.70;99.90;;;;;;1888819;75;21378;-81
2023/07/24 16:37:32;;;;;;;5.25;3.70;;;27.30;99.90;;;;;;1905809;75;21098;-81
2023/07/24 16:40:23;;;;;;;5.08;3.80;;;27.10;99.90;;;;;;1904103;75;21192;-81
2023/07/24 16:43:15;;;;;;;5.28;3.72;;;27.10;99.90;;;;;;1905619;74;21107;-82
2023/07/24 16:46:07;;;;;;;4.80;3.80;;;27.00;99.90;;;;;;1904495;74;21148;-81
2023/07/24 16:49:00;;;;;;;3.85;3.55;;;27.20;99.90;;;;;;1904149;74;21234;-82
2023/07/24 16:51:52;;;;;;;5.47;3.60;;;27.50;99.90;;;;;;1904283;74;21118;-82
2023/07/24 16:54:44;;;;;;;4.25;3.10;;;27.40;99.90;;;;;;1908751;74;21142;-82
2023/07/24 16:57:36;;;;;;;5.47;3.30;;;27.10;99.90;;;;;;1914258;74;21117;-82
2023/07/24 17:00:28;;;;;;;5.20;3.52;;;26.90;99.90;;;;;;1914911;74;21123;-82
2023/07/24 17:03:19;;;;;;;3.77;3.12;;;26.90;99.90;;;;;;1916138;74;21175;-82
2023/07/24 17:06:10;;;;;;;3.83;2.80;;;26.80;99.90;;;;;;1908407;74;21525;-82
2023/07/24 17:09:02;;;;;;;4.42;3.05;;;26.80;99.90;;;;;;1892831;76;21636;-81